sensor_id;sensor_type;location;lat;lon;timestamp;P1;durP1;ratioP1;P2;durP2;ratioP2
54328;SDS011;40710;51.120;13.136;2023-02-10T00:00:03;24.37;;;23.46;;
54328;SDS011;40710;51.120;13.136;2023-02-10T00:02:28;24.01;;;23.05;;
54328;SDS011;40710;51.120;13.136;2023-02-10T00:04:53;24.29;;;23.48;;
54328;SDS011;40710;51.120;13.136;2023-02-10T00:07:18;24.48;;;23.74;;
54328;SDS011;40710;51.120;13.136;2023-02-10T00:09:43;25.27;;;23.95;;
54328;SDS011;40710;51.120;13.136;2023-02-10T00:12:07;23.97;;;22.87;;
54328;SDS011;40710;51.120;13.136;2023-02-10T00:14:34;24.49;;;23.50;;
54328;SDS011;40710;51.120;13.136;2023-02-10T00:16:58;24.35;;;23.58;;
54328;SDS011;40710;51.120;13.136;2023-02-10T00:19:24;25.11;;;23.87;;
54328;SDS011;40710;51.120;13.136;2023-02-10T00:21:50;24.07;;;23.37;;
54328;SDS011;40710;51.120;13.136;2023-02-10T00:24:15;23.36;;;22.59;;
54328;SDS011;40710;51.120;13.136;2023-02-10T00:26:40;23.86;;;23.19;;
54328;SDS011;40710;51.120;13.136;2023-02-10T00:29:05;25.49;;;24.43;;
54328;SDS011;40710;51.120;13.136;2023-02-10T00:31:29;24.06;;;23.15;;
54328;SDS011;40710;51.120;13.136;2023-02-10T00:33:54;24.10;;;23.13;;
54328;SDS011;40710;51.120;13.136;2023-02-10T00:36:18;24.01;;;23.45;;
54328;SDS011;40710;51.120;13.136;2023-02-10T00:38:43;24.03;;;23.35;;
54328;SDS011;40710;51.120;13.136;2023-02-10T00:41:10;24.35;;;23.27;;
54328;SDS011;40710;51.120;13.136;2023-02-10T00:43:37;24.71;;;23.60;;
54328;SDS011;40710;51.120;13.136;2023-02-10T00:46:04;24.70;;;23.53;;
54328;SDS011;40710;51.120;13.136;2023-02-10T00:48:29;24.78;;;23.79;;
54328;SDS011;40710;51.120;13.136;2023-02-10T00:50:53;25.10;;;24.04;;
54328;SDS011;40710;51.120;13.136;2023-02-10T00:53:18;24.49;;;23.47;;
54328;SDS011;40710;51.120;13.136;2023-02-10T00:55:42;24.69;;;23.66;;
54328;SDS011;40710;51.120;13.136;2023-02-10T00:58:07;23.93;;;23.18;;
54328;SDS011;40710;51.120;13.136;2023-02-10T01:00:31;24.38;;;23.41;;
54328;SDS011;40710;51.120;13.136;2023-02-10T01:02:56;23.41;;;22.46;;
54328;SDS011;40710;51.120;13.136;2023-02-10T01:05:20;25.14;;;24.32;;
54328;SDS011;40710;51.120;13.136;2023-02-10T01:07:45;24.68;;;23.62;;
54328;SDS011;40710;51.120;13.136;2023-02-10T01:10:10;25.06;;;24.02;;
54328;SDS011;40710;51.120;13.136;2023-02-10T01:12:34;25.07;;;24.07;;
54328;SDS011;40710;51.120;13.136;2023-02-10T01:14:58;23.90;;;23.22;;
54328;SDS011;40710;51.120;13.136;2023-02-10T01:17:23;24.93;;;23.89;;
54328;SDS011;40710;51.120;13.136;2023-02-10T01:19:48;24.66;;;23.60;;
54328;SDS011;40710;51.120;13.136;2023-02-10T01:22:15;24.31;;;23.41;;
54328;SDS011;40710;51.120;13.136;2023-02-10T01:24:39;24.59;;;23.66;;
54328;SDS011;40710;51.120;13.136;2023-02-10T01:27:04;24.81;;;24.22;;
54328;SDS011;40710;51.120;13.136;2023-02-10T01:29:28;24.99;;;24.17;;
54328;SDS011;40710;51.120;13.136;2023-02-10T01:31:53;24.92;;;24.02;;
54328;SDS011;40710;51.120;13.136;2023-02-10T01:34:17;23.95;;;23.00;;
54328;SDS011;40710;51.120;13.136;2023-02-10T01:36:42;23.77;;;22.85;;
54328;SDS011;40710;51.120;13.136;2023-02-10T01:39:06;24.78;;;23.72;;
54328;SDS011;40710;51.120;13.136;2023-02-10T01:41:32;24.00;;;23.11;;
54328;SDS011;40710;51.120;13.136;2023-02-10T01:46:50;24.81;;;23.98;;
54328;SDS011;40710;51.120;13.136;2023-02-10T01:49:16;25.07;;;24.03;;
54328;SDS011;40710;51.120;13.136;2023-02-10T01:51:47;24.93;;;24.05;;
54328;SDS011;40710;51.120;13.136;2023-02-10T01:54:19;24.86;;;23.95;;
54328;SDS011;40710;51.120;13.136;2023-02-10T01:56:50;25.18;;;24.15;;
54328;SDS011;40710;51.120;13.136;2023-02-10T01:59:17;25.69;;;24.65;;
54328;SDS011;40710;51.120;13.136;2023-02-10T02:01:45;26.34;;;25.15;;
54328;SDS011;40710;51.120;13.136;2023-02-10T02:04:11;26.25;;;25.13;;
54328;SDS011;40710;51.120;13.136;2023-02-10T02:06:35;24.92;;;23.97;;
54328;SDS011;40710;51.120;13.136;2023-02-10T02:09:01;25.96;;;24.97;;
54328;SDS011;40710;51.120;13.136;2023-02-10T02:11:33;25.82;;;24.79;;
54328;SDS011;40710;51.120;13.136;2023-02-10T02:16:50;26.23;;;25.11;;
54328;SDS011;40710;51.120;13.136;2023-02-10T02:19:58;26.31;;;25.08;;
54328;SDS011;40710;51.120;13.136;2023-02-10T02:22:59;26.43;;;25.42;;
54328;SDS011;40710;51.120;13.136;2023-02-10T02:25:55;26.37;;;25.29;;
54328;SDS011;40710;51.120;13.136;2023-02-10T02:31:04;27.12;;;25.89;;
54328;SDS011;40710;51.120;13.136;2023-02-10T02:33:58;27.23;;;25.90;;
54328;SDS011;40710;51.120;13.136;2023-02-10T02:36:32;26.40;;;25.46;;
54328;SDS011;40710;51.120;13.136;2023-02-10T02:39:04;26.57;;;25.46;;
54328;SDS011;40710;51.120;13.136;2023-02-10T02:41:29;26.49;;;25.32;;
54328;SDS011;40710;51.120;13.136;2023-02-10T02:43:55;26.41;;;25.36;;
54328;SDS011;40710;51.120;13.136;2023-02-10T02:46:35;27.39;;;26.42;;
54328;SDS011;40710;51.120;13.136;2023-02-10T02:49:19;27.15;;;26.25;;
54328;SDS011;40710;51.120;13.136;2023-02-10T02:52:00;27.20;;;26.18;;
54328;SDS011;40710;51.120;13.136;2023-02-10T02:54:40;26.85;;;25.87;;
54328;SDS011;40710;51.120;13.136;2023-02-10T02:57:16;27.63;;;26.64;;
54328;SDS011;40710;51.120;13.136;2023-02-10T02:59:51;27.73;;;26.78;;
54328;SDS011;40710;51.120;13.136;2023-02-10T03:02:26;28.45;;;27.00;;
54328;SDS011;40710;51.120;13.136;2023-02-10T03:04:53;27.66;;;26.31;;
54328;SDS011;40710;51.120;13.136;2023-02-10T03:07:18;28.92;;;27.46;;
54328;SDS011;40710;51.120;13.136;2023-02-10T03:09:42;28.44;;;27.17;;
54328;SDS011;40710;51.120;13.136;2023-02-10T03:12:07;28.34;;;26.95;;
54328;SDS011;40710;51.120;13.136;2023-02-10T03:14:32;28.55;;;27.42;;
54328;SDS011;40710;51.120;13.136;2023-02-10T03:16:57;28.32;;;27.29;;
54328;SDS011;40710;51.120;13.136;2023-02-10T03:19:21;28.12;;;26.90;;
54328;SDS011;40710;51.120;13.136;2023-02-10T03:21:46;28.08;;;27.09;;
54328;SDS011;40710;51.120;13.136;2023-02-10T03:24:11;28.17;;;26.99;;
54328;SDS011;40710;51.120;13.136;2023-02-10T03:26:36;28.60;;;27.30;;
54328;SDS011;40710;51.120;13.136;2023-02-10T03:29:01;28.42;;;27.28;;
54328;SDS011;40710;51.120;13.136;2023-02-10T03:31:26;28.94;;;27.29;;
54328;SDS011;40710;51.120;13.136;2023-02-10T03:33:50;29.02;;;27.96;;
54328;SDS011;40710;51.120;13.136;2023-02-10T03:36:15;28.61;;;27.62;;
54328;SDS011;40710;51.120;13.136;2023-02-10T03:38:40;29.69;;;28.25;;
54328;SDS011;40710;51.120;13.136;2023-02-10T03:41:05;29.89;;;28.08;;
54328;SDS011;40710;51.120;13.136;2023-02-10T03:43:30;30.26;;;28.53;;
54328;SDS011;40710;51.120;13.136;2023-02-10T03:45:55;30.11;;;28.53;;
54328;SDS011;40710;51.120;13.136;2023-02-10T03:48:22;29.60;;;28.30;;
54328;SDS011;40710;51.120;13.136;2023-02-10T03:50:50;30.23;;;28.81;;
54328;SDS011;40710;51.120;13.136;2023-02-10T03:53:15;29.78;;;28.49;;
54328;SDS011;40710;51.120;13.136;2023-02-10T03:55:39;30.58;;;28.96;;
54328;SDS011;40710;51.120;13.136;2023-02-10T03:58:04;31.00;;;29.62;;
54328;SDS011;40710;51.120;13.136;2023-02-10T04:00:29;31.77;;;30.56;;
54328;SDS011;40710;51.120;13.136;2023-02-10T04:02:54;32.66;;;30.89;;
54328;SDS011;40710;51.120;13.136;2023-02-10T04:05:18;32.84;;;31.40;;
54328;SDS011;40710;51.120;13.136;2023-02-10T04:07:43;32.48;;;31.10;;
54328;SDS011;40710;51.120;13.136;2023-02-10T04:10:07;33.57;;;32.07;;
54328;SDS011;40710;51.120;13.136;2023-02-10T04:12:32;36.35;;;34.60;;
54328;SDS011;40710;51.120;13.136;2023-02-10T04:14:57;36.39;;;34.45;;
54328;SDS011;40710;51.120;13.136;2023-02-10T04:17:21;36.18;;;34.50;;
54328;SDS011;40710;51.120;13.136;2023-02-10T04:19:46;35.02;;;33.15;;
54328;SDS011;40710;51.120;13.136;2023-02-10T04:22:10;35.06;;;33.40;;
54328;SDS011;40710;51.120;13.136;2023-02-10T04:24:35;34.29;;;33.03;;
54328;SDS011;40710;51.120;13.136;2023-02-10T04:26:59;35.46;;;33.73;;
54328;SDS011;40710;51.120;13.136;2023-02-10T04:29:24;34.83;;;33.26;;
54328;SDS011;40710;51.120;13.136;2023-02-10T04:31:48;35.61;;;33.60;;
54328;SDS011;40710;51.120;13.136;2023-02-10T04:34:13;34.33;;;32.84;;
54328;SDS011;40710;51.120;13.136;2023-02-10T04:36:37;35.17;;;33.51;;
54328;SDS011;40710;51.120;13.136;2023-02-10T04:39:02;35.57;;;33.91;;
54328;SDS011;40710;51.120;13.136;2023-02-10T04:41:26;35.67;;;34.01;;
54328;SDS011;40710;51.120;13.136;2023-02-10T04:43:51;36.08;;;34.32;;
54328;SDS011;40710;51.120;13.136;2023-02-10T04:46:15;35.33;;;34.01;;
54328;SDS011;40710;51.120;13.136;2023-02-10T04:48:40;36.37;;;34.94;;
54328;SDS011;40710;51.120;13.136;2023-02-10T04:51:05;38.68;;;36.98;;
54328;SDS011;40710;51.120;13.136;2023-02-10T04:53:31;39.12;;;37.08;;
54328;SDS011;40710;51.120;13.136;2023-02-10T04:55:55;37.92;;;36.40;;
54328;SDS011;40710;51.120;13.136;2023-02-10T04:58:20;37.67;;;36.14;;
54328;SDS011;40710;51.120;13.136;2023-02-10T05:00:46;38.36;;;36.89;;
54328;SDS011;40710;51.120;13.136;2023-02-10T05:03:10;40.04;;;38.07;;
54328;SDS011;40710;51.120;13.136;2023-02-10T05:05:35;41.55;;;39.60;;
54328;SDS011;40710;51.120;13.136;2023-02-10T05:07:59;43.18;;;41.00;;
54328;SDS011;40710;51.120;13.136;2023-02-10T05:10:24;41.99;;;39.90;;
54328;SDS011;40710;51.120;13.136;2023-02-10T05:12:49;41.61;;;39.74;;
54328;SDS011;40710;51.120;13.136;2023-02-10T05:15:13;41.85;;;39.82;;
54328;SDS011;40710;51.120;13.136;2023-02-10T05:17:39;41.52;;;39.57;;
54328;SDS011;40710;51.120;13.136;2023-02-10T05:20:04;41.26;;;39.37;;
54328;SDS011;40710;51.120;13.136;2023-02-10T05:22:29;42.09;;;40.07;;
54328;SDS011;40710;51.120;13.136;2023-02-10T05:24:53;41.88;;;39.86;;
54328;SDS011;40710;51.120;13.136;2023-02-10T05:27:19;41.83;;;39.52;;
54328;SDS011;40710;51.120;13.136;2023-02-10T05:29:43;41.69;;;39.63;;
54328;SDS011;40710;51.120;13.136;2023-02-10T05:32:08;42.46;;;40.42;;
54328;SDS011;40710;51.120;13.136;2023-02-10T05:34:32;42.75;;;40.64;;
54328;SDS011;40710;51.120;13.136;2023-02-10T05:36:57;43.32;;;40.92;;
54328;SDS011;40710;51.120;13.136;2023-02-10T05:39:21;43.47;;;40.98;;
54328;SDS011;40710;51.120;13.136;2023-02-10T05:41:49;43.48;;;41.18;;
54328;SDS011;40710;51.120;13.136;2023-02-10T05:44:19;43.15;;;41.33;;
54328;SDS011;40710;51.120;13.136;2023-02-10T05:46:44;43.53;;;41.84;;
54328;SDS011;40710;51.120;13.136;2023-02-10T05:49:09;42.68;;;40.98;;
54328;SDS011;40710;51.120;13.136;2023-02-10T05:51:33;42.77;;;40.72;;
54328;SDS011;40710;51.120;13.136;2023-02-10T05:53:58;42.59;;;40.54;;
54328;SDS011;40710;51.120;13.136;2023-02-10T05:56:22;43.17;;;40.92;;
54328;SDS011;40710;51.120;13.136;2023-02-10T05:58:47;42.55;;;40.66;;
54328;SDS011;40710;51.120;13.136;2023-02-10T06:01:11;42.47;;;40.69;;
54328;SDS011;40710;51.120;13.136;2023-02-10T06:03:36;43.11;;;41.08;;
54328;SDS011;40710;51.120;13.136;2023-02-10T06:06:00;42.91;;;40.53;;
54328;SDS011;40710;51.120;13.136;2023-02-10T06:08:25;42.51;;;40.18;;
54328;SDS011;40710;51.120;13.136;2023-02-10T06:10:50;43.78;;;41.52;;
54328;SDS011;40710;51.120;13.136;2023-02-10T06:13:14;43.82;;;41.75;;
54328;SDS011;40710;51.120;13.136;2023-02-10T06:15:39;42.57;;;40.60;;
54328;SDS011;40710;51.120;13.136;2023-02-10T06:18:04;42.01;;;40.25;;
54328;SDS011;40710;51.120;13.136;2023-02-10T06:20:28;43.32;;;41.38;;
54328;SDS011;40710;51.120;13.136;2023-02-10T06:22:53;43.72;;;41.63;;
54328;SDS011;40710;51.120;13.136;2023-02-10T06:25:17;42.92;;;41.12;;
54328;SDS011;40710;51.120;13.136;2023-02-10T06:27:42;43.14;;;41.02;;
54328;SDS011;40710;51.120;13.136;2023-02-10T06:30:06;44.18;;;41.42;;
54328;SDS011;40710;51.120;13.136;2023-02-10T06:32:32;44.46;;;42.08;;
54328;SDS011;40710;51.120;13.136;2023-02-10T06:34:56;43.38;;;41.24;;
54328;SDS011;40710;51.120;13.136;2023-02-10T06:37:21;43.15;;;40.80;;
54328;SDS011;40710;51.120;13.136;2023-02-10T06:39:45;43.23;;;41.12;;
54328;SDS011;40710;51.120;13.136;2023-02-10T06:42:10;43.78;;;41.14;;
54328;SDS011;40710;51.120;13.136;2023-02-10T06:44:34;42.92;;;40.99;;
54328;SDS011;40710;51.120;13.136;2023-02-10T06:46:59;42.48;;;40.23;;
54328;SDS011;40710;51.120;13.136;2023-02-10T06:49:24;44.41;;;41.99;;
54328;SDS011;40710;51.120;13.136;2023-02-10T06:51:48;44.69;;;42.36;;
54328;SDS011;40710;51.120;13.136;2023-02-10T06:54:13;44.74;;;42.74;;
54328;SDS011;40710;51.120;13.136;2023-02-10T06:56:37;44.10;;;42.09;;
54328;SDS011;40710;51.120;13.136;2023-02-10T06:59:03;46.35;;;44.25;;
54328;SDS011;40710;51.120;13.136;2023-02-10T07:01:28;44.97;;;42.34;;
54328;SDS011;40710;51.120;13.136;2023-02-10T07:03:53;44.77;;;42.58;;
54328;SDS011;40710;51.120;13.136;2023-02-10T07:06:17;45.47;;;43.04;;
54328;SDS011;40710;51.120;13.136;2023-02-10T07:08:42;44.87;;;42.61;;
54328;SDS011;40710;51.120;13.136;2023-02-10T07:11:06;45.29;;;43.10;;
54328;SDS011;40710;51.120;13.136;2023-02-10T07:13:31;45.47;;;43.21;;
54328;SDS011;40710;51.120;13.136;2023-02-10T07:15:56;46.61;;;44.21;;
54328;SDS011;40710;51.120;13.136;2023-02-10T07:18:20;44.63;;;42.34;;
54328;SDS011;40710;51.120;13.136;2023-02-10T07:20:45;45.28;;;43.03;;
54328;SDS011;40710;51.120;13.136;2023-02-10T07:23:10;44.26;;;42.40;;
54328;SDS011;40710;51.120;13.136;2023-02-10T07:25:34;47.55;;;45.03;;
54328;SDS011;40710;51.120;13.136;2023-02-10T07:27:59;47.83;;;45.37;;
54328;SDS011;40710;51.120;13.136;2023-02-10T07:30:23;52.02;;;48.97;;
54328;SDS011;40710;51.120;13.136;2023-02-10T07:32:48;46.48;;;44.21;;
54328;SDS011;40710;51.120;13.136;2023-02-10T07:35:12;45.85;;;43.33;;
54328;SDS011;40710;51.120;13.136;2023-02-10T07:37:37;45.09;;;43.04;;
54328;SDS011;40710;51.120;13.136;2023-02-10T07:40:02;46.10;;;43.81;;
54328;SDS011;40710;51.120;13.136;2023-02-10T07:42:28;48.58;;;45.92;;
54328;SDS011;40710;51.120;13.136;2023-02-10T07:44:52;48.28;;;45.81;;
54328;SDS011;40710;51.120;13.136;2023-02-10T07:47:17;47.55;;;45.19;;
54328;SDS011;40710;51.120;13.136;2023-02-10T07:49:42;50.00;;;47.38;;
54328;SDS011;40710;51.120;13.136;2023-02-10T07:52:06;47.99;;;45.61;;
54328;SDS011;40710;51.120;13.136;2023-02-10T07:54:31;47.42;;;45.14;;
54328;SDS011;40710;51.120;13.136;2023-02-10T07:56:56;47.27;;;44.97;;
54328;SDS011;40710;51.120;13.136;2023-02-10T07:59:20;47.49;;;45.17;;
54328;SDS011;40710;51.120;13.136;2023-02-10T08:01:45;47.51;;;45.36;;
54328;SDS011;40710;51.120;13.136;2023-02-10T08:04:10;47.04;;;44.76;;
54328;SDS011;40710;51.120;13.136;2023-02-10T08:06:35;47.45;;;45.19;;
54328;SDS011;40710;51.120;13.136;2023-02-10T08:08:59;48.88;;;46.02;;
54328;SDS011;40710;51.120;13.136;2023-02-10T08:11:24;48.38;;;46.24;;
54328;SDS011;40710;51.120;13.136;2023-02-10T08:13:48;48.53;;;45.90;;
54328;SDS011;40710;51.120;13.136;2023-02-10T08:16:13;48.27;;;45.38;;
54328;SDS011;40710;51.120;13.136;2023-02-10T08:18:38;48.76;;;46.17;;
54328;SDS011;40710;51.120;13.136;2023-02-10T08:21:03;47.86;;;45.68;;
54328;SDS011;40710;51.120;13.136;2023-02-10T08:23:28;48.29;;;46.07;;
54328;SDS011;40710;51.120;13.136;2023-02-10T08:25:52;50.94;;;48.31;;
54328;SDS011;40710;51.120;13.136;2023-02-10T08:28:17;51.38;;;48.36;;
54328;SDS011;40710;51.120;13.136;2023-02-10T08:30:42;50.13;;;47.36;;
54328;SDS011;40710;51.120;13.136;2023-02-10T08:33:06;50.97;;;48.09;;
54328;SDS011;40710;51.120;13.136;2023-02-10T08:35:31;51.48;;;48.93;;
54328;SDS011;40710;51.120;13.136;2023-02-10T08:37:56;50.72;;;47.85;;
54328;SDS011;40710;51.120;13.136;2023-02-10T08:40:20;49.49;;;47.22;;
54328;SDS011;40710;51.120;13.136;2023-02-10T08:42:45;51.09;;;48.44;;
54328;SDS011;40710;51.120;13.136;2023-02-10T08:45:09;52.57;;;49.38;;
54328;SDS011;40710;51.120;13.136;2023-02-10T08:47:34;52.32;;;49.12;;
54328;SDS011;40710;51.120;13.136;2023-02-10T08:50:02;51.77;;;48.68;;
54328;SDS011;40710;51.120;13.136;2023-02-10T08:52:35;52.68;;;49.34;;
54328;SDS011;40710;51.120;13.136;2023-02-10T08:54:59;53.10;;;49.82;;
54328;SDS011;40710;51.120;13.136;2023-02-10T08:57:25;52.96;;;49.88;;
54328;SDS011;40710;51.120;13.136;2023-02-10T08:59:50;51.95;;;49.19;;
54328;SDS011;40710;51.120;13.136;2023-02-10T09:02:14;53.26;;;50.03;;
54328;SDS011;40710;51.120;13.136;2023-02-10T09:04:39;53.62;;;50.57;;
54328;SDS011;40710;51.120;13.136;2023-02-10T09:07:05;53.45;;;50.31;;
54328;SDS011;40710;51.120;13.136;2023-02-10T09:09:30;52.53;;;49.38;;
54328;SDS011;40710;51.120;13.136;2023-02-10T09:11:54;53.28;;;50.36;;
54328;SDS011;40710;51.120;13.136;2023-02-10T09:14:20;53.49;;;50.21;;
54328;SDS011;40710;51.120;13.136;2023-02-10T09:16:44;54.58;;;51.19;;
54328;SDS011;40710;51.120;13.136;2023-02-10T09:19:09;53.87;;;50.75;;
54328;SDS011;40710;51.120;13.136;2023-02-10T09:21:34;54.63;;;51.69;;
54328;SDS011;40710;51.120;13.136;2023-02-10T09:23:58;53.48;;;50.70;;
54328;SDS011;40710;51.120;13.136;2023-02-10T09:26:23;54.52;;;51.07;;
54328;SDS011;40710;51.120;13.136;2023-02-10T09:28:47;56.06;;;52.54;;
54328;SDS011;40710;51.120;13.136;2023-02-10T09:31:12;54.75;;;51.64;;
54328;SDS011;40710;51.120;13.136;2023-02-10T09:33:39;54.72;;;51.26;;
54328;SDS011;40710;51.120;13.136;2023-02-10T09:36:04;54.25;;;50.97;;
54328;SDS011;40710;51.120;13.136;2023-02-10T09:38:30;55.11;;;51.92;;
54328;SDS011;40710;51.120;13.136;2023-02-10T09:43:56;55.33;;;51.86;;
54328;SDS011;40710;51.120;13.136;2023-02-10T09:46:46;56.97;;;53.18;;
54328;SDS011;40710;51.120;13.136;2023-02-10T09:55:22;57.30;;;53.34;;
54328;SDS011;40710;51.120;13.136;2023-02-10T09:58:14;55.88;;;52.52;;
54328;SDS011;40710;51.120;13.136;2023-02-10T10:00:45;56.25;;;52.86;;
54328;SDS011;40710;51.120;13.136;2023-02-10T10:03:18;61.91;;;57.90;;
54328;SDS011;40710;51.120;13.136;2023-02-10T10:06:00;57.61;;;53.47;;
54328;SDS011;40710;51.120;13.136;2023-02-10T10:11:42;57.58;;;52.91;;
54328;SDS011;40710;51.120;13.136;2023-02-10T10:14:23;55.26;;;50.92;;
54328;SDS011;40710;51.120;13.136;2023-02-10T10:17:01;56.02;;;51.67;;
54328;SDS011;40710;51.120;13.136;2023-02-10T10:22:24;55.98;;;51.45;;
54328;SDS011;40710;51.120;13.136;2023-02-10T10:28:18;54.78;;;50.32;;
54328;SDS011;40710;51.120;13.136;2023-02-10T10:33:43;54.14;;;49.80;;
54328;SDS011;40710;51.120;13.136;2023-02-10T10:36:15;54.61;;;50.33;;
54328;SDS011;40710;51.120;13.136;2023-02-10T10:38:54;55.16;;;50.63;;
54328;SDS011;40710;51.120;13.136;2023-02-10T10:41:25;57.56;;;52.62;;
54328;SDS011;40710;51.120;13.136;2023-02-10T10:43:54;60.36;;;55.28;;
54328;SDS011;40710;51.120;13.136;2023-02-10T10:48:50;58.98;;;54.00;;
54328;SDS011;40710;51.120;13.136;2023-02-10T10:51:15;58.55;;;53.76;;
54328;SDS011;40710;51.120;13.136;2023-02-10T10:56:18;54.78;;;51.37;;
54328;SDS011;40710;51.120;13.136;2023-02-10T10:58:59;57.77;;;53.46;;
54328;SDS011;40710;51.120;13.136;2023-02-10T11:01:33;57.07;;;52.88;;
54328;SDS011;40710;51.120;13.136;2023-02-10T11:04:06;58.78;;;53.84;;
54328;SDS011;40710;51.120;13.136;2023-02-10T11:06:36;58.34;;;53.95;;
54328;SDS011;40710;51.120;13.136;2023-02-10T11:09:02;57.88;;;53.73;;
54328;SDS011;40710;51.120;13.136;2023-02-10T11:11:31;58.33;;;54.02;;
54328;SDS011;40710;51.120;13.136;2023-02-10T11:13:58;58.46;;;53.91;;
54328;SDS011;40710;51.120;13.136;2023-02-10T11:16:23;58.18;;;53.66;;
54328;SDS011;40710;51.120;13.136;2023-02-10T11:18:57;58.08;;;53.68;;
54328;SDS011;40710;51.120;13.136;2023-02-10T11:21:37;56.93;;;52.51;;
54328;SDS011;40710;51.120;13.136;2023-02-10T11:24:15;57.40;;;52.82;;
54328;SDS011;40710;51.120;13.136;2023-02-10T11:27:03;56.80;;;52.80;;
54328;SDS011;40710;51.120;13.136;2023-02-10T11:29:31;56.10;;;51.64;;
54328;SDS011;40710;51.120;13.136;2023-02-10T11:32:04;52.92;;;48.78;;
54328;SDS011;40710;51.120;13.136;2023-02-10T11:34:29;54.03;;;49.87;;
54328;SDS011;40710;51.120;13.136;2023-02-10T11:36:59;52.91;;;49.02;;
54328;SDS011;40710;51.120;13.136;2023-02-10T11:39:35;53.73;;;49.22;;
54328;SDS011;40710;51.120;13.136;2023-02-10T11:42:08;52.77;;;48.77;;
54328;SDS011;40710;51.120;13.136;2023-02-10T11:44:35;51.58;;;47.63;;
54328;SDS011;40710;51.120;13.136;2023-02-10T11:47:01;51.75;;;47.44;;
54328;SDS011;40710;51.120;13.136;2023-02-10T11:49:29;49.59;;;46.08;;
54328;SDS011;40710;51.120;13.136;2023-02-10T11:51:56;49.13;;;45.76;;
54328;SDS011;40710;51.120;13.136;2023-02-10T11:54:23;48.19;;;45.12;;
54328;SDS011;40710;51.120;13.136;2023-02-10T12:05:00;46.75;;;43.66;;
54328;SDS011;40710;51.120;13.136;2023-02-10T12:08:03;46.00;;;43.48;;
54328;SDS011;40710;51.120;13.136;2023-02-10T12:10:51;45.69;;;43.02;;
54328;SDS011;40710;51.120;13.136;2023-02-10T12:19:12;46.84;;;43.68;;
54328;SDS011;40710;51.120;13.136;2023-02-10T12:24:38;45.62;;;42.64;;
54328;SDS011;40710;51.120;13.136;2023-02-10T12:30:11;46.38;;;42.80;;
54328;SDS011;40710;51.120;13.136;2023-02-10T12:33:00;45.94;;;43.03;;
54328;SDS011;40710;51.120;13.136;2023-02-10T12:38:49;44.52;;;42.02;;
54328;SDS011;40710;51.120;13.136;2023-02-10T12:44:01;48.03;;;44.56;;
54328;SDS011;40710;51.120;13.136;2023-02-10T12:46:53;48.42;;;45.15;;
54328;SDS011;40710;51.120;13.136;2023-02-10T12:49:38;46.39;;;43.23;;
54328;SDS011;40710;51.120;13.136;2023-02-10T12:52:43;47.59;;;43.98;;
54328;SDS011;40710;51.120;13.136;2023-02-10T12:55:24;47.45;;;43.79;;
54328;SDS011;40710;51.120;13.136;2023-02-10T12:58:10;44.53;;;41.43;;
54328;SDS011;40710;51.120;13.136;2023-02-10T13:00:44;46.40;;;42.91;;
54328;SDS011;40710;51.120;13.136;2023-02-10T13:03:19;44.92;;;42.20;;
54328;SDS011;40710;51.120;13.136;2023-02-10T13:06:04;45.22;;;42.50;;
54328;SDS011;40710;51.120;13.136;2023-02-10T13:08:45;44.53;;;41.82;;
54328;SDS011;40710;51.120;13.136;2023-02-10T13:14:19;46.38;;;43.16;;
54328;SDS011;40710;51.120;13.136;2023-02-10T13:16:54;45.52;;;42.09;;
54328;SDS011;40710;51.120;13.136;2023-02-10T13:19:23;44.04;;;41.56;;
54328;SDS011;40710;51.120;13.136;2023-02-10T13:22:00;45.14;;;41.84;;
54328;SDS011;40710;51.120;13.136;2023-02-10T13:27:54;44.48;;;41.34;;
54328;SDS011;40710;51.120;13.136;2023-02-10T13:33:27;43.58;;;40.67;;
54328;SDS011;40710;51.120;13.136;2023-02-10T13:36:09;45.38;;;41.90;;
54328;SDS011;40710;51.120;13.136;2023-02-10T13:38:40;46.50;;;42.73;;
54328;SDS011;40710;51.120;13.136;2023-02-10T13:41:15;44.65;;;41.52;;
54328;SDS011;40710;51.120;13.136;2023-02-10T13:44:22;44.62;;;41.39;;
54328;SDS011;40710;51.120;13.136;2023-02-10T13:46:54;43.55;;;40.21;;
54328;SDS011;40710;51.120;13.136;2023-02-10T13:49:23;42.72;;;39.38;;
54328;SDS011;40710;51.120;13.136;2023-02-10T13:51:49;42.37;;;39.01;;
54328;SDS011;40710;51.120;13.136;2023-02-10T13:54:25;46.17;;;42.36;;
54328;SDS011;40710;51.120;13.136;2023-02-10T13:56:52;41.65;;;38.71;;
54328;SDS011;40710;51.120;13.136;2023-02-10T14:01:50;38.69;;;36.24;;
54328;SDS011;40710;51.120;13.136;2023-02-10T14:04:46;39.61;;;36.90;;
54328;SDS011;40710;51.120;13.136;2023-02-10T14:07:35;37.81;;;35.30;;
54328;SDS011;40710;51.120;13.136;2023-02-10T14:10:42;37.59;;;35.24;;
54328;SDS011;40710;51.120;13.136;2023-02-10T14:12:59;39.25;;;36.49;;
54328;SDS011;40710;51.120;13.136;2023-02-10T14:15:44;36.41;;;34.08;;
54328;SDS011;40710;51.120;13.136;2023-02-10T14:18:21;36.93;;;34.63;;
54328;SDS011;40710;51.120;13.136;2023-02-10T14:20:55;36.00;;;33.81;;
54328;SDS011;40710;51.120;13.136;2023-02-10T14:23:41;34.47;;;32.60;;
54328;SDS011;40710;51.120;13.136;2023-02-10T14:26:15;34.25;;;32.53;;
54328;SDS011;40710;51.120;13.136;2023-02-10T14:28:46;35.44;;;33.43;;
54328;SDS011;40710;51.120;13.136;2023-02-10T14:31:16;34.62;;;32.62;;
54328;SDS011;40710;51.120;13.136;2023-02-10T14:33:53;35.56;;;33.39;;
54328;SDS011;40710;51.120;13.136;2023-02-10T14:36:19;33.27;;;31.34;;
54328;SDS011;40710;51.120;13.136;2023-02-10T14:38:44;32.67;;;31.06;;
54328;SDS011;40710;51.120;13.136;2023-02-10T14:41:19;33.75;;;31.97;;
54328;SDS011;40710;51.120;13.136;2023-02-10T14:43:43;34.86;;;32.74;;
54328;SDS011;40710;51.120;13.136;2023-02-10T14:46:08;35.74;;;33.64;;
54328;SDS011;40710;51.120;13.136;2023-02-10T14:48:43;36.30;;;33.89;;
54328;SDS011;40710;51.120;13.136;2023-02-10T14:51:19;36.12;;;34.14;;
54328;SDS011;40710;51.120;13.136;2023-02-10T14:53:45;36.43;;;34.25;;
54328;SDS011;40710;51.120;13.136;2023-02-10T14:56:22;35.65;;;33.42;;
54328;SDS011;40710;51.120;13.136;2023-02-10T14:58:48;36.46;;;34.33;;
54328;SDS011;40710;51.120;13.136;2023-02-10T15:03:50;36.41;;;34.34;;
54328;SDS011;40710;51.120;13.136;2023-02-10T15:06:16;37.00;;;34.65;;
54328;SDS011;40710;51.120;13.136;2023-02-10T15:11:09;35.77;;;33.64;;
54328;SDS011;40710;51.120;13.136;2023-02-10T15:14:00;34.33;;;32.57;;
54328;SDS011;40710;51.120;13.136;2023-02-10T15:16:25;35.12;;;32.70;;
54328;SDS011;40710;51.120;13.136;2023-02-10T15:18:50;33.33;;;31.53;;
54328;SDS011;40710;51.120;13.136;2023-02-10T15:21:26;32.99;;;31.31;;
54328;SDS011;40710;51.120;13.136;2023-02-10T15:23:59;32.33;;;30.93;;
54328;SDS011;40710;51.120;13.136;2023-02-10T15:26:24;32.48;;;31.11;;
54328;SDS011;40710;51.120;13.136;2023-02-10T15:29:02;33.27;;;31.56;;
54328;SDS011;40710;51.120;13.136;2023-02-10T15:31:38;35.77;;;33.26;;
54328;SDS011;40710;51.120;13.136;2023-02-10T15:34:14;34.00;;;32.00;;